Time;durP1;ratioP1;P1;durP2;ratioP2;P2;SDS_P1;SDS_P2;PMS_P1;PMS_P2;Temp;Humidity;BMP_temperature;BMP_pressure;BME280_temperature;BME280_humidity;BME280_pressure;Samples;Min_cycle;Max_cycle;Signal;HPM_P1;HPM_P2
2022/03/11 00:01:26;;;;;;;12.30;5.80;;;;;;;;;;5073813;28;20021;-82
2022/03/11 00:03:52;;;;;;;12.10;5.67;;;;;;;;;;5074956;28;20107;-82
2022/03/11 00:06:17;;;;;;;12.35;5.80;;;;;;;;;;5045006;28;20036;-83
2022/03/11 00:08:42;;;;;;;11.03;5.67;;;;;;;;;;5078236;28;20059;-82
2022/03/11 00:11:08;;;;;;;14.10;5.57;;;;;;;;;;5090480;28;20029;-83
2022/03/11 00:13:34;;;;;;;12.47;5.67;;;;;;;;;;5049401;28;20051;-83
2022/03/11 00:15:59;;;;;;;15.33;5.40;;;;;;;;;;5061671;28;20023;-83
2022/03/11 00:18:25;;;;;;;19.60;5.47;;;;;;;;;;5066903;28;20014;-82
2022/03/11 00:20:50;;;;;;;13.23;5.38;;;;;;;;;;5052405;28;20024;-83
2022/03/11 00:23:15;;;;;;;9.80;5.30;;;;;;;;;;5063228;28;20027;-81
2022/03/11 00:25:41;;;;;;;12.77;6.03;;;;;;;;;;5060054;28;20076;-81
2022/03/11 00:28:07;;;;;;;12.43;5.50;;;;;;;;;;5051288;28;20029;-81
2022/03/11 00:30:33;;;;;;;13.48;5.38;;;;;;;;;;5055388;28;20025;-84
2022/03/11 00:33:00;;;;;;;11.60;5.80;;;;;;;;;;5051514;28;20095;-84
2022/03/11 00:35:26;;;;;;;13.47;5.60;;;;;;;;;;5151368;23;20050;-84
2022/03/11 00:37:53;;;;;;;11.48;5.43;;;;;;;;;;5006006;28;20025;-84
2022/03/11 00:40:18;;;;;;;13.57;5.57;;;;;;;;;;5050430;23;20049;-81
2022/03/11 00:42:43;;;;;;;14.97;5.73;;;;;;;;;;5028633;28;20523;-82
2022/03/11 00:45:09;;;;;;;10.57;5.20;;;;;;;;;;5028750;28;20036;-84
2022/03/11 00:47:35;;;;;;;10.57;5.27;;;;;;;;;;5049399;28;20052;-87
2022/03/11 00:50:00;;;;;;;13.73;6.20;;;;;;;;;;5019174;28;20052;-84
2022/03/11 00:52:26;;;;;;;13.23;5.85;;;;;;;;;;5012923;28;20097;-84
2022/03/11 00:54:51;;;;;;;14.27;5.43;;;;;;;;;;5038553;28;20110;-84
2022/03/11 00:57:17;;;;;;;12.43;5.17;;;;;;;;;;5033648;28;20108;-84
2022/03/11 00:59:42;;;;;;;12.13;5.23;;;;;;;;;;5034404;28;20029;-79
2022/03/11 01:02:08;;;;;;;13.20;5.77;;;;;;;;;;5031316;28;20475;-81
2022/03/11 01:04:33;;;;;;;12.60;5.33;;;;;;;;;;5037740;28;20017;-83
2022/03/11 01:06:59;;;;;;;12.53;5.37;;;;;;;;;;5018504;28;20028;-80
2022/03/11 01:09:24;;;;;;;13.10;5.23;;;;;;;;;;5014407;28;20032;-83
2022/03/11 01:11:49;;;;;;;11.07;5.73;;;;;;;;;;5006845;28;20049;-84
2022/03/11 01:14:15;;;;;;;11.00;5.53;;;;;;;;;;5012279;28;20420;-83
2022/03/11 01:16:40;;;;;;;11.10;5.43;;;;;;;;;;5008370;28;20169;-82
2022/03/11 01:19:06;;;;;;;12.20;5.17;;;;;;;;;;5018267;28;20030;-84
2022/03/11 01:21:31;;;;;;;12.43;5.37;;;;;;;;;;5028928;28;20076;-83
2022/03/11 01:23:56;;;;;;;16.60;5.57;;;;;;;;;;5014201;28;20032;-81
2022/03/11 01:26:22;;;;;;;9.60;4.90;;;;;;;;;;5008686;28;20114;-83
2022/03/11 01:28:47;;;;;;;13.17;5.33;;;;;;;;;;5009254;28;20041;-83
2022/03/11 01:31:12;;;;;;;11.10;5.23;;;;;;;;;;5034113;28;20054;-83
2022/03/11 01:33:41;;;;;;;16.07;5.77;;;;;;;;;;5019323;28;20109;-84
2022/03/11 01:36:07;;;;;;;11.40;5.30;;;;;;;;;;5016418;28;20041;-83
2022/03/11 01:38:32;;;;;;;15.37;5.77;;;;;;;;;;5032358;28;20017;-83
2022/03/11 01:40:57;;;;;;;13.83;5.93;;;;;;;;;;5014800;28;20025;-86
2022/03/11 01:43:23;;;;;;;14.97;6.03;;;;;;;;;;5021772;28;20034;-84
2022/03/11 01:45:48;;;;;;;11.10;5.37;;;;;;;;;;5018686;28;20033;-85
2022/03/11 01:48:14;;;;;;;13.27;5.33;;;;;;;;;;5022764;28;20024;-83
2022/03/11 01:50:40;;;;;;;13.40;5.33;;;;;;;;;;5044930;28;20041;-84
2022/03/11 01:53:10;;;;;;;14.67;5.50;;;;;;;;;;5024467;28;20031;-86
2022/03/11 01:55:40;;;;;;;12.83;6.07;;;;;;;;;;5043916;28;20022;-84
2022/03/11 01:58:06;;;;;;;11.20;5.10;;;;;;;;;;5018930;28;20056;-84
2022/03/11 02:00:40;;;;;;;11.83;5.03;;;;;;;;;;5019660;28;20456;-87
2022/03/11 02:03:07;;;;;;;12.43;5.70;;;;;;;;;;5021929;28;20049;-83
2022/03/11 02:05:33;;;;;;;12.57;5.17;;;;;;;;;;5021110;28;20051;-83
2022/03/11 02:07:58;;;;;;;13.40;5.20;;;;;;;;;;5031424;28;20101;-81
2022/03/11 02:10:24;;;;;;;12.73;5.73;;;;;;;;;;5018012;28;20029;-82
2022/03/11 02:12:50;;;;;;;13.17;5.50;;;;;;;;;;5019466;28;20033;-82
2022/03/11 02:15:15;;;;;;;15.10;5.97;;;;;;;;;;5037791;28;20022;-82
2022/03/11 02:17:40;;;;;;;9.40;4.67;;;;;;;;;;5041065;28;20018;-84
2022/03/11 02:20:06;;;;;;;13.13;4.93;;;;;;;;;;5025871;28;20017;-83
2022/03/11 02:22:34;;;;;;;12.03;5.23;;;;;;;;;;5042686;28;20098;-80
2022/03/11 02:24:59;;;;;;;14.67;4.63;;;;;;;;;;5039402;28;20032;-78
2022/03/11 02:27:25;;;;;;;15.50;5.60;;;;;;;;;;5023699;28;20466;-81
2022/03/11 02:29:50;;;;;;;12.90;5.53;;;;;;;;;;5029911;28;20033;-80
2022/03/11 02:32:16;;;;;;;13.67;5.30;;;;;;;;;;5040037;28;20017;-82
2022/03/11 02:34:41;;;;;;;12.23;5.90;;;;;;;;;;5016710;28;20045;-81
2022/03/11 02:37:08;;;;;;;14.50;5.27;;;;;;;;;;5023157;28;20030;-82
2022/03/11 02:39:33;;;;;;;11.90;5.43;;;;;;;;;;5039858;28;20117;-81
2022/03/11 02:42:00;;;;;;;11.40;5.47;;;;;;;;;;5010849;28;20042;-80
2022/03/11 02:44:29;;;;;;;14.90;5.50;;;;;;;;;;5021017;28;20060;-83
2022/03/11 02:46:54;;;;;;;11.25;4.88;;;;;;;;;;5043517;28;20030;-80
2022/03/11 02:49:19;;;;;;;15.27;5.60;;;;;;;;;;5034538;28;20034;-79
2022/03/11 02:51:45;;;;;;;11.50;4.93;;;;;;;;;;5017514;28;20036;-83
2022/03/11 02:54:10;;;;;;;11.37;5.33;;;;;;;;;;5015444;28;20034;-81
2022/03/11 02:56:39;;;;;;;13.60;4.97;;;;;;;;;;5036024;28;20022;-81
2022/03/11 02:59:05;;;;;;;13.17;5.23;;;;;;;;;;5037891;28;20037;-81
2022/03/11 03:01:32;;;;;;;11.50;5.23;;;;;;;;;;5035783;28;20021;-82
2022/03/11 03:03:57;;;;;;;10.93;4.87;;;;;;;;;;5040419;28;20041;-81
2022/03/11 03:06:22;;;;;;;12.20;5.17;;;;;;;;;;5018752;28;20029;-80
2022/03/11 03:08:47;;;;;;;9.67;4.77;;;;;;;;;;5020238;28;20035;-81
2022/03/11 03:11:13;;;;;;;10.60;4.67;;;;;;;;;;5013374;28;20052;-80
2022/03/11 03:13:38;;;;;;;9.77;4.60;;;;;;;;;;5016055;28;20029;-80
2022/03/11 03:16:04;;;;;;;14.40;5.50;;;;;;;;;;5013895;28;20512;-81
2022/03/11 03:18:30;;;;;;;9.83;4.50;;;;;;;;;;5030312;28;20002;-83
2022/03/11 03:20:55;;;;;;;10.43;4.87;;;;;;;;;;5054025;28;20057;-82
2022/03/11 03:23:20;;;;;;;12.30;5.33;;;;;;;;;;5044085;28;20013;-83
2022/03/11 03:25:46;;;;;;;10.03;4.57;;;;;;;;;;5019492;28;20033;-83
2022/03/11 03:28:12;;;;;;;11.33;4.33;;;;;;;;;;5047886;28;20029;-81
2022/03/11 03:30:37;;;;;;;11.13;4.97;;;;;;;;;;5045773;28;20052;-82
2022/03/11 03:33:02;;;;;;;12.80;5.13;;;;;;;;;;5053131;28;20017;-82
2022/03/11 03:35:28;;;;;;;10.67;4.90;;;;;;;;;;5047530;28;20014;-82
2022/03/11 03:37:53;;;;;;;13.50;5.27;;;;;;;;;;5031922;28;20010;-82
2022/03/11 03:40:19;;;;;;;12.30;5.27;;;;;;;;;;5022919;28;20029;-82
2022/03/11 03:42:45;;;;;;;13.70;5.47;;;;;;;;;;5041787;28;20018;-83
2022/03/11 03:45:10;;;;;;;14.53;4.67;;;;;;;;;;5020771;28;20017;-82
2022/03/11 03:47:35;;;;;;;10.27;4.50;;;;;;;;;;5046662;28;20021;-84
2022/03/11 03:50:01;;;;;;;10.07;4.97;;;;;;;;;;5054117;28;20022;-80
2022/03/11 03:52:27;;;;;;;11.67;4.67;;;;;;;;;;5023287;28;20503;-81
2022/03/11 03:54:53;;;;;;;14.40;6.50;;;;;;;;;;5049515;28;20031;-81
2022/03/11 03:57:18;;;;;;;14.17;5.63;;;;;;;;;;5052193;28;20081;-81
2022/03/11 03:59:43;;;;;;;12.80;4.77;;;;;;;;;;5030922;28;20029;-81
2022/03/11 04:02:09;;;;;;;9.77;4.40;;;;;;;;;;5038055;28;20025;-81
2022/03/11 04:04:35;;;;;;;11.50;4.53;;;;;;;;;;5035691;28;20488;-81
2022/03/11 04:07:00;;;;;;;11.93;4.70;;;;;;;;;;5036946;28;20513;-81
2022/03/11 04:09:31;;;;;;;14.33;5.20;;;;;;;;;;5060854;28;20021;-82
2022/03/11 04:11:59;;;;;;;16.60;5.57;;;;;;;;;;5067973;28;20032;-81
2022/03/11 04:14:25;;;;;;;13.32;6.30;;;;;;;;;;5051132;28;20029;-80
2022/03/11 04:16:51;;;;;;;10.30;4.70;;;;;;;;;;5070662;28;20184;-83
2022/03/11 04:19:17;;;;;;;11.10;4.90;;;;;;;;;;5054344;28;20020;-82
2022/03/11 04:21:43;;;;;;;12.57;5.40;;;;;;;;;;5051841;28;20042;-80
2022/03/11 04:24:13;;;;;;;12.10;4.97;;;;;;;;;;5040637;28;20013;-81
2022/03/11 04:26:39;;;;;;;9.83;4.20;;;;;;;;;;5037127;28;20023;-79
2022/03/11 04:29:05;;;;;;;12.17;4.63;;;;;;;;;;5051637;28;20021;-80
2022/03/11 04:31:31;;;;;;;14.43;4.90;;;;;;;;;;5037911;28;20025;-81
2022/03/11 04:33:57;;;;;;;12.10;4.77;;;;;;;;;;5044618;28;20044;-81
2022/03/11 04:36:23;;;;;;;13.53;4.33;;;;;;;;;;5034770;28;20018;-80
2022/03/11 04:38:49;;;;;;;11.33;4.80;;;;;;;;;;5065797;28;20017;-81
2022/03/11 04:41:14;;;;;;;12.93;4.03;;;;;;;;;;5056055;28;20001;-82
2022/03/11 04:43:46;;;;;;;10.63;4.63;;;;;;;;;;5037952;28;20048;-82
2022/03/11 04:46:13;;;;;;;14.00;5.20;;;;;;;;;;5042798;28;20013;-83
2022/03/11 04:48:41;;;;;;;11.03;4.50;;;;;;;;;;5041325;28;21339;-82
2022/03/11 04:51:22;;;;;;;10.77;4.90;;;;;;;;;;5056959;28;20014;-85
2022/03/11 04:53:48;;;;;;;11.90;3.93;;;;;;;;;;5056666;28;20026;-83
2022/03/11 04:56:19;;;;;;;11.80;5.03;;;;;;;;;;5060078;28;20104;-82
2022/03/11 04:58:46;;;;;;;15.07;4.60;;;;;;;;;;5069214;28;19989;-82
2022/03/11 05:06:23;;;;;;;15.60;5.57;;;;;;;;;;5437199;22;20437;-83
2022/03/11 05:08:49;;;;;;;12.43;4.13;;;;;;;;;;5035170;28;20469;-80
2022/03/11 05:11:14;;;;;;;10.47;4.67;;;;;;;;;;5032201;28;20021;-81
2022/03/11 05:13:49;;;;;;;11.37;4.40;;;;;;;;;;5033017;28;20114;-81
2022/03/11 05:16:15;;;;;;;14.90;5.33;;;;;;;;;;5016675;28;20039;-81
2022/03/11 05:18:43;;;;;;;9.07;4.93;;;;;;;;;;5015669;28;20021;-82
2022/03/11 05:21:10;;;;;;;12.40;5.03;;;;;;;;;;5018816;28;20032;-84
2022/03/11 05:23:36;;;;;;;13.50;4.60;;;;;;;;;;5019374;28;20018;-81
2022/03/11 05:26:04;;;;;;;12.37;5.30;;;;;;;;;;5019487;28;20022;-82
2022/03/11 05:28:31;;;;;;;;;;;;;;;;;;5020807;28;20036;-83
2022/03/11 05:31:07;;;;;;;15.27;4.57;;;;;;;;;;5046045;23;19893;-87
2022/03/11 05:33:47;;;;;;;17.97;6.07;;;;;;;;;;5484203;23;20045;-86
2022/03/11 05:38:53;;;;;;;10.77;4.40;;;;;;;;;;5438380;22;20331;-85
2022/03/11 05:41:27;;;;;;;14.30;5.40;;;;;;;;;;5470813;23;20046;-86
2022/03/11 05:44:13;;;;;;;12.47;5.23;;;;;;;;;;5017793;28;20006;-82
2022/03/11 05:46:43;;;;;;;12.23;4.70;;;;;;;;;;5018251;28;20027;-84
2022/03/11 05:52:13;;;;;;;14.90;4.97;;;;;;;;;;5016871;28;20026;-82
2022/03/11 05:54:48;;;;;;;13.37;4.73;;;;;;;;;;5015078;28;20061;-82
2022/03/11 05:57:21;;;;;;;11.70;4.50;;;;;;;;;;5013353;28;20045;-82
2022/03/11 05:59:49;;;;;;;14.50;4.67;;;;;;;;;;5034860;28;20049;-82
2022/03/11 06:02:20;;;;;;;11.53;4.97;;;;;;;;;;5021353;28;20017;-82
2022/03/11 06:04:47;;;;;;;10.73;4.53;;;;;;;;;;5023686;28;20029;-84
2022/03/11 06:17:44;;;;;;;12.27;4.33;;;;;;;;;;6056156;23;20016;-83
2022/03/11 06:20:13;;;;;;;11.17;4.37;;;;;;;;;;5031204;28;20045;-83
2022/03/11 06:22:54;;;;;;;10.02;4.75;;;;;;;;;;5021562;28;20028;-82
2022/03/11 06:25:21;;;;;;;18.63;4.67;;;;;;;;;;5024970;28;20022;-83
2022/03/11 06:27:54;;;;;;;9.70;4.73;;;;;;;;;;5031543;28;20021;-85
2022/03/11 06:30:26;;;;;;;16.97;4.97;;;;;;;;;;5057645;28;20036;-84
2022/03/11 06:32:57;;;;;;;13.97;5.07;;;;;;;;;;5042512;28;20002;-84
2022/03/11 06:35:23;;;;;;;11.90;4.80;;;;;;;;;;5041423;28;20056;-85
2022/03/11 06:37:51;;;;;;;12.33;4.37;;;;;;;;;;5024931;28;20025;-85
2022/03/11 06:40:17;;;;;;;13.95;4.50;;;;;;;;;;5085542;23;20026;-82
2022/03/11 06:42:44;;;;;;;15.47;6.10;;;;;;;;;;5092563;28;20052;-81
2022/03/11 06:45:10;;;;;;;9.53;4.47;;;;;;;;;;5069319;28;20085;-82
2022/03/11 06:47:35;;;;;;;17.17;5.67;;;;;;;;;;5091108;28;20038;-81
2022/03/11 06:50:01;;;;;;;13.07;4.57;;;;;;;;;;5071238;28;20057;-81
2022/03/11 06:52:26;;;;;;;9.70;4.80;;;;;;;;;;5064422;28;20025;-80
2022/03/11 06:54:52;;;;;;;9.40;4.30;;;;;;;;;;5066928;28;20025;-81
2022/03/11 06:57:17;;;;;;;9.10;4.00;;;;;;;;;;5040307;28;20021;-82
2022/03/11 06:59:46;;;;;;;11.20;4.37;;;;;;;;;;5063015;28;20028;-82
2022/03/11 07:02:11;;;;;;;12.57;4.80;;;;;;;;;;5049883;28;20022;-83
2022/03/11 07:04:42;;;;;;;9.53;4.53;;;;;;;;;;5050833;28;20005;-84
2022/03/11 07:07:11;;;;;;;13.53;5.10;;;;;;;;;;5044817;28;20033;-82
2022/03/11 07:09:36;;;;;;;15.48;4.30;;;;;;;;;;5059190;28;20029;-81
2022/03/11 07:12:03;;;;;;;16.60;5.30;;;;;;;;;;5042031;28;20136;-82
2022/03/11 07:14:28;;;;;;;14.57;5.13;;;;;;;;;;5038743;28;20037;-82
2022/03/11 07:16:56;;;;;;;13.63;4.73;;;;;;;;;;5048319;28;20022;-82
2022/03/11 07:19:22;;;;;;;10.87;4.40;;;;;;;;;;5044443;28;20024;-83
2022/03/11 07:21:48;;;;;;;15.40;4.67;;;;;;;;;;5075634;28;20045;-83
2022/03/11 07:24:14;;;;;;;8.60;3.70;;;;;;;;;;5049679;28;20088;-82
2022/03/11 07:26:40;;;;;;;11.37;3.93;;;;;;;;;;5062157;28;20025;-82
2022/03/11 07:29:09;;;;;;;8.87;3.70;;;;;;;;;;5039577;28;20064;-81
2022/03/11 07:31:34;;;;;;;;;;;;;;;;;;5042654;28;20121;-81
2022/03/11 07:34:03;;;;;;;9.90;3.70;;;;;;;;;;5051075;28;19948;-84
2022/03/11 07:36:34;;;;;;;10.13;4.22;;;;;;;;;;5058594;28;20024;-83
2022/03/11 07:39:02;;;;;;;10.83;4.47;;;;;;;;;;5039266;28;20092;-81
2022/03/11 07:41:29;;;;;;;13.50;4.53;;;;;;;;;;5057686;28;20033;-82
2022/03/11 07:43:55;;;;;;;12.90;3.67;;;;;;;;;;5061074;28;20044;-80
2022/03/11 07:46:23;;;;;;;13.87;4.40;;;;;;;;;;5058090;28;20021;-81
2022/03/11 07:48:51;;;;;;;14.40;5.23;;;;;;;;;;5038523;28;20033;-83
2022/03/11 07:51:31;;;;;;;11.73;4.63;;;;;;;;;;5038693;28;20000;-84
2022/03/11 07:53:58;;;;;;;12.70;4.90;;;;;;;;;;5060481;28;20028;-82
2022/03/11 07:56:27;;;;;;;12.07;4.27;;;;;;;;;;5045656;28;20057;-82
2022/03/11 07:58:56;;;;;;;10.52;4.80;;;;;;;;;;5064170;28;20028;-82
2022/03/11 08:01:21;;;;;;;11.47;5.13;;;;;;;;;;5063374;28;20022;-82
2022/03/11 08:03:50;;;;;;;18.47;6.33;;;;;;;;;;5070767;28;20065;-82
2022/03/11 08:06:18;;;;;;;15.10;5.47;;;;;;;;;;5050686;28;20017;-82
2022/03/11 08:08:44;;;;;;;11.68;4.85;;;;;;;;;;5049539;28;20096;-82
2022/03/11 08:11:15;;;;;;;12.80;5.37;;;;;;;;;;5036508;28;20045;-82
2022/03/11 08:16:20;;;;;;;16.03;5.63;;;;;;;;;;5093175;23;20077;-83
2022/03/11 08:18:51;;;;;;;12.80;5.37;;;;;;;;;;5034647;28;20026;-83
2022/03/11 08:23:56;;;;;;;11.37;5.07;;;;;;;;;;6038331;23;20021;-81
2022/03/11 08:26:21;;;;;;;16.60;5.18;;;;;;;;;;5961814;22;20793;-81
2022/03/11 08:28:51;;;;;;;10.63;4.80;;;;;;;;;;5098669;28;20043;-83
2022/03/11 08:31:17;;;;;;;14.30;5.13;;;;;;;;;;5061353;28;20092;-83
2022/03/11 08:33:43;;;;;;;10.30;4.57;;;;;;;;;;5053004;28;20038;-83
2022/03/11 08:36:18;;;;;;;8.07;4.05;;;;;;;;;;5050953;28;20058;-83
2022/03/11 08:38:46;;;;;;;11.60;5.07;;;;;;;;;;5049440;28;20401;-81
2022/03/11 08:43:57;;;;;;;11.55;4.85;;;;;;;;;;5323045;22;20054;-82
2022/03/11 08:46:23;;;;;;;11.45;5.32;;;;;;;;;;5031839;28;20014;-82
2022/03/11 08:48:51;;;;;;;10.60;4.47;;;;;;;;;;5035099;28;20082;-82
2022/03/11 08:51:19;;;;;;;10.67;4.63;;;;;;;;;;5036791;28;20062;-81
2022/03/11 08:53:44;;;;;;;15.98;5.85;;;;;;;;;;5039819;28;20271;-81
2022/03/11 08:56:10;;;;;;;10.63;4.55;;;;;;;;;;5017941;28;20041;-83
2022/03/11 08:58:35;;;;;;;13.73;4.97;;;;;;;;;;5027784;28;20141;-80
2022/03/11 09:01:00;;;;;;;17.52;5.47;;;;;;;;;;5021977;28;20045;-81
2022/03/11 09:03:26;;;;;;;11.27;4.18;;;;;;;;;;5053320;28;20021;-82
2022/03/11 09:05:54;;;;;;;10.18;4.60;;;;;;;;;;5043025;28;20053;-82
2022/03/11 09:08:21;;;;;;;12.38;4.75;;;;;;;;;;5020398;28;20028;-82
2022/03/11 09:10:46;;;;;;;13.57;5.43;;;;;;;;;;5024731;28;20057;-81
2022/03/11 09:13:12;;;;;;;11.75;5.03;;;;;;;;;;5041731;28;20010;-82
2022/03/11 09:15:37;;;;;;;11.73;4.80;;;;;;;;;;5020635;28;20029;-82
2022/03/11 09:18:02;;;;;;;10.20;4.25;;;;;;;;;;5045933;28;20025;-82
2022/03/11 09:20:27;;;;;;;14.48;5.07;;;;;;;;;;5034784;28;20017;-81
2022/03/11 09:22:53;;;;;;;10.02;4.65;;;;;;;;;;5045929;28;20018;-82
2022/03/11 09:25:18;;;;;;;10.27;4.68;;;;;;;;;;5029912;28;20025;-81
2022/03/11 09:27:44;;;;;;;11.60;4.70;;;;;;;;;;5031864;28;20030;-82
2022/03/11 09:30:09;;;;;;;14.82;4.93;;;;;;;;;;5038921;28;20037;-81
2022/03/11 09:32:38;;;;;;;14.52;6.22;;;;;;;;;;5046514;28;20017;-81
2022/03/11 09:35:06;;;;;;;14.55;4.63;;;;;;;;;;5048344;28;20033;-82
2022/03/11 09:37:32;;;;;;;9.07;4.65;;;;;;;;;;5052037;28;20025;-84
2022/03/11 09:40:03;;;;;;;11.38;4.53;;;;;;;;;;5041997;28;20029;-82
2022/03/11 09:42:29;;;;;;;10.23;4.43;;;;;;;;;;5047870;28;20049;-83
2022/03/11 09:44:55;;;;;;;10.85;4.20;;;;;;;;;;5043959;28;20029;-82
2022/03/11 09:47:21;;;;;;;13.45;4.63;;;;;;;;;;5042255;28;20020;-82
2022/03/11 09:49:47;;;;;;;8.82;4.63;;;;;;;;;;5034223;28;20017;-82
2022/03/11 09:52:14;;;;;;;13.02;5.00;;;;;;;;;;5049047;28;20009;-81
2022/03/11 09:54:40;;;;;;;11.25;4.82;;;;;;;;;;5030642;28;20085;-82
2022/03/11 09:57:06;;;;;;;9.18;4.65;;;;;;;;;;5020004;28;20037;-82
2022/03/11 09:59:34;;;;;;;12.75;5.78;;;;;;;;;;5052062;28;20010;-83
2022/03/11 10:02:06;;;;;;;15.98;4.57;;;;;;;;;;5392863;23;20093;-83
2022/03/11 10:12:22;;;;;;;14.73;4.28;;;;;;;;;;5568614;22;20110;-83
2022/03/11 10:14:54;;;;;;;9.23;4.53;;;;;;;;;;5032027;28;20041;-85
2022/03/11 10:17:20;;;;;;;9.48;4.45;;;;;;;;;;5023724;28;20025;-86
2022/03/11 10:22:28;;;;;;;8.15;4.47;;;;;;;;;;5076362;23;20056;-90
2022/03/11 10:24:53;;;;;;;15.30;5.63;;;;;;;;;;5046049;28;20121;-89
2022/03/11 10:27:18;;;;;;;10.73;5.03;;;;;;;;;;5053198;28;20036;-91
2022/03/11 10:29:44;;;;;;;10.98;4.80;;;;;;;;;;5046654;28;20036;-89
2022/03/11 10:32:09;;;;;;;13.32;4.35;;;;;;;;;;5012106;28;20079;-88
2022/03/11 10:34:35;;;;;;;11.70;4.65;;;;;;;;;;5046831;28;20071;-89
2022/03/11 10:37:06;;;;;;;9.50;4.82;;;;;;;;;;5030356;28;20044;-89
2022/03/11 10:39:41;;;;;;;12.95;5.53;;;;;;;;;;5052101;28;20017;-88
2022/03/11 10:42:12;;;;;;;10.05;4.95;;;;;;;;;;5031812;28;20049;-88
2022/03/11 10:44:38;;;;;;;8.25;4.40;;;;;;;;;;5029020;28;20025;-86
2022/03/11 10:47:20;;;;;;;10.57;5.22;;;;;;;;;;5029342;28;20025;-86
2022/03/11 10:49:49;;;;;;;8.35;4.47;;;;;;;;;;5023813;28;20495;-86
2022/03/11 10:52:26;;;;;;;12.40;4.80;;;;;;;;;;5023586;28;20094;-85
2022/03/11 10:54:52;;;;;;;10.00;4.88;;;;;;;;;;5049093;28;20082;-86
2022/03/11 10:57:17;;;;;;;8.80;4.68;;;;;;;;;;5038842;28;20029;-85
2022/03/11 10:59:42;;;;;;;9.80;5.53;;;;;;;;;;5043461;28;20056;-85
2022/03/11 11:02:08;;;;;;;10.32;4.93;;;;;;;;;;5025161;28;20021;-86
2022/03/11 11:04:33;;;;;;;11.40;4.55;;;;;;;;;;5045755;28;20429;-83
2022/03/11 11:06:59;;;;;;;8.77;4.30;;;;;;;;;;5044438;28;20032;-85
2022/03/11 11:09:24;;;;;;;20.42;3.90;;;;;;;;;;5033607;28;20067;-85
2022/03/11 11:11:50;;;;;;;22.92;4.22;;;;;;;;;;5039587;28;20354;-88
2022/03/11 11:14:16;;;;;;;12.07;3.28;;;;;;;;;;5041456;28;20028;-89
2022/03/11 11:16:43;;;;;;;10.10;3.78;;;;;;;;;;5043714;28;20408;-89
2022/03/11 11:19:09;;;;;;;18.55;3.80;;;;;;;;;;5040907;28;20028;-89
2022/03/11 11:21:35;;;;;;;10.13;3.47;;;;;;;;;;5028297;28;20024;-87
2022/03/11 11:24:00;;;;;;;8.30;3.40;;;;;;;;;;5048267;28;20021;-87
2022/03/11 11:26:26;;;;;;;9.00;3.88;;;;;;;;;;5041025;28;20029;-85
2022/03/11 11:28:52;;;;;;;8.77;3.40;;;;;;;;;;5044361;28;20261;-86
2022/03/11 11:31:18;;;;;;;9.52;3.35;;;;;;;;;;5023668;28;20028;-87
2022/03/11 11:33:44;;;;;;;8.77;3.72;;;;;;;;;;5032035;28;20025;-88
2022/03/11 11:36:10;;;;;;;7.93;3.63;;;;;;;;;;5021319;28;20034;-87
2022/03/11 11:38:37;;;;;;;10.20;3.78;;;;;;;;;;5021407;28;20530;-86
2022/03/11 11:41:23;;;;;;;10.23;3.67;;;;;;;;;;5039186;28;20025;-86
2022/03/11 11:43:57;;;;;;;8.45;3.35;;;;;;;;;;5042905;28;20026;-86
2022/03/11 11:46:22;;;;;;;5.90;3.28;;;;;;;;;;5020242;28;20021;-86
2022/03/11 11:48:48;;;;;;;8.18;3.97;;;;;;;;;;5030839;28;20121;-84
2022/03/11 11:51:14;;;;;;;13.02;3.35;;;;;;;;;;5048003;28;20100;-85
2022/03/11 11:53:40;;;;;;;9.20;4.00;;;;;;;;;;5026823;28;20029;-85
2022/03/11 11:56:25;;;;;;;12.02;3.38;;;;;;;;;;5045073;28;20032;-85
2022/03/11 11:58:51;;;;;;;9.68;3.92;;;;;;;;;;5039931;28;20025;-85
2022/03/11 12:01:39;;;;;;;8.68;4.20;;;;;;;;;;5047494;28;20064;-84
2022/03/11 12:04:25;;;;;;;14.27;5.13;;;;;;;;;;5046936;28;20034;-85
2022/03/11 12:07:00;;;;;;;10.02;3.67;;;;;;;;;;5040470;28;20033;-85
2022/03/11 12:12:08;;;;;;;14.40;5.85;;;;;;;;;;5046590;28;20022;-83
2022/03/11 12:14:53;;;;;;;8.93;3.85;;;;;;;;;;5053139;28;20025;-84
2022/03/11 12:17:37;;;;;;;9.52;3.90;;;;;;;;;;5032214;28;20075;-84
2022/03/11 12:20:21;;;;;;;9.43;4.45;;;;;;;;;;5045756;28;20507;-83
2022/03/11 12:22:54;;;;;;;24.98;5.82;;;;;;;;;;5036428;28;20124;-86
2022/03/11 12:25:23;;;;;;;10.77;4.70;;;;;;;;;;5039356;28;20396;-83
2022/03/11 12:27:57;;;;;;;9.20;5.20;;;;;;;;;;5044721;28;20025;-86
2022/03/11 12:30:23;;;;;;;10.38;5.47;;;;;;;;;;5034535;28;20108;-83
2022/03/11 12:32:50;;;;;;;18.48;4.88;;;;;;;;;;5047780;28;20033;-82
2022/03/11 12:35:17;;;;;;;8.93;4.35;;;;;;;;;;5042574;28;20063;-81
2022/03/11 12:37:43;;;;;;;8.18;4.53;;;;;;;;;;5041427;28;20013;-82
2022/03/11 12:40:08;;;;;;;12.18;5.07;;;;;;;;;;5030043;28;20071;-81
2022/03/11 12:42:41;;;;;;;9.80;4.78;;;;;;;;;;5038402;28;20492;-80
2022/03/11 12:45:06;;;;;;;10.15;5.18;;;;;;;;;;5019966;28;20437;-81
2022/03/11 12:47:35;;;;;;;11.90;4.22;;;;;;;;;;5039439;28;20159;-81
2022/03/11 12:50:01;;;;;;;12.63;4.57;;;;;;;;;;5035704;28;20020;-80
2022/03/11 12:52:34;;;;;;;9.00;4.70;;;;;;;;;;5042546;28;20017;-80
2022/03/11 12:55:00;;;;;;;9.43;4.90;;;;;;;;;;5038726;28;20060;-82
2022/03/11 12:57:25;;;;;;;12.85;5.20;;;;;;;;;;5041328;28;20481;-83
2022/03/11 12:59:50;;;;;;;13.43;6.23;;;;;;;;;;5025438;28;20396;-83
2022/03/11 13:02:16;;;;;;;10.60;5.28;;;;;;;;;;5025977;28;20251;-84
2022/03/11 13:04:42;;;;;;;10.45;4.88;;;;;;;;;;5018042;28;20067;-83
2022/03/11 13:07:07;;;;;;;9.80;4.72;;;;;;;;;;5031033;28;20033;-84
2022/03/11 13:09:32;;;;;;;14.30;5.53;;;;;;;;;;5019232;28;20021;-83
2022/03/11 13:12:18;;;;;;;9.00;4.63;;;;;;;;;;5037474;28;20045;-84
2022/03/11 13:14:43;;;;;;;10.32;5.07;;;;;;;;;;5037479;28;20757;-83
2022/03/11 13:17:08;;;;;;;7.85;4.57;;;;;;;;;;5021803;28;20022;-83
2022/03/11 13:19:33;;;;;;;10.20;4.70;;;;;;;;;;5020985;28;20389;-83
2022/03/11 13:21:58;;;;;;;11.73;4.57;;;;;;;;;;5040668;28;20025;-83
2022/03/11 13:24:24;;;;;;;8.27;4.53;;;;;;;;;;5043046;28;20017;-83
2022/03/11 13:26:49;;;;;;;9.60;4.93;;;;;;;;;;5036071;28;20305;-84
2022/03/11 13:29:14;;;;;;;9.65;5.25;;;;;;;;;;5021937;28;20040;-84
2022/03/11 13:31:39;;;;;;;16.87;4.90;;;;;;;;;;5023568;28;20035;-86
2022/03/11 13:34:05;;;;;;;12.73;5.40;;;;;;;;;;5041882;28;20381;-85
2022/03/11 13:36:34;;;;;;;11.18;5.07;;;;;;;;;;5040860;28;20251;-85
2022/03/11 13:39:12;;;;;;;10.25;4.90;;;;;;;;;;5029197;28;20056;-86
2022/03/11 13:41:46;;;;;;;7.90;4.45;;;;;;;;;;5044156;28;20057;-85
2022/03/11 13:44:26;;;;;;;8.55;5.05;;;;;;;;;;5027694;28;20036;-84
2022/03/11 13:46:52;;;;;;;9.30;4.88;;;;;;;;;;5022168;28;20021;-84
2022/03/11 13:49:21;;;;;;;11.50;5.15;;;;;;;;;;5042703;28;20071;-84
2022/03/11 13:51:56;;;;;;;8.93;5.22;;;;;;;;;;5037892;28;20040;-83
2022/03/11 13:54:22;;;;;;;13.43;5.38;;;;;;;;;;5020366;28;20484;-83
2022/03/11 13:56:48;;;;;;;12.77;5.60;;;;;;;;;;5045982;28;20084;-82
2022/03/11 13:59:13;;;;;;;15.38;5.22;;;;;;;;;;5038056;28;20083;-83
2022/03/11 14:01:39;;;;;;;8.23;4.80;;;;;;;;;;5041870;28;20033;-83
2022/03/11 14:04:18;;;;;;;11.32;5.75;;;;;;;;;;5041479;28;20033;-84
2022/03/11 14:06:43;;;;;;;11.95;5.97;;;;;;;;;;5036311;28;20035;-83
2022/03/11 14:09:10;;;;;;;9.95;5.57;;;;;;;;;;5025990;28;20493;-84
2022/03/11 14:11:35;;;;;;;13.90;5.97;;;;;;;;;;5027047;28;20373;-83
2022/03/11 14:14:00;;;;;;;12.98;5.22;;;;;;;;;;5040012;28;20024;-83
2022/03/11 14:16:26;;;;;;;15.85;5.28;;;;;;;;;;5051159;28;20021;-83
2022/03/11 14:18:52;;;;;;;12.77;5.40;;;;;;;;;;5043935;28;20175;-83
2022/03/11 14:21:17;;;;;;;10.75;5.63;;;;;;;;;;5043601;28;20458;-83
2022/03/11 14:23:43;;;;;;;14.77;5.68;;;;;;;;;;5039855;28;20025;-86
2022/03/11 14:26:14;;;;;;;11.35;5.30;;;;;;;;;;5058524;28;20032;-85
2022/03/11 14:28:39;;;;;;;9.32;4.70;;;;;;;;;;5044602;28;20044;-84
2022/03/11 14:31:04;;;;;;;10.57;6.22;;;;;;;;;;5026601;28;20029;-83
2022/03/11 14:33:31;;;;;;;11.10;5.53;;;;;;;;;;5044170;28;20040;-83
2022/03/11 14:35:57;;;;;;;12.15;5.35;;;;;;;;;;5043010;28;20044;-83
2022/03/11 14:38:22;;;;;;;13.05;5.85;;;;;;;;;;5044889;28;20024;-85
2022/03/11 14:40:48;;;;;;;16.23;5.63;;;;;;;;;;5044144;28;20342;-83
2022/03/11 14:43:13;;;;;;;13.13;5.80;;;;;;;;;;5049289;28;20029;-85
2022/03/11 14:45:38;;;;;;;9.95;5.13;;;;;;;;;;5047359;28;20059;-83
2022/03/11 14:48:04;;;;;;;9.70;5.25;;;;;;;;;;5044720;28;20033;-83
2022/03/11 14:50:29;;;;;;;11.45;4.78;;;;;;;;;;5044488;28;20025;-83
2022/03/11 14:52:54;;;;;;;11.80;4.40;;;;;;;;;;5024255;28;20036;-85
2022/03/11 14:55:22;;;;;;;7.90;4.50;;;;;;;;;;5045727;28;20025;-84
2022/03/11 14:57:47;;;;;;;10.35;4.28;;;;;;;;;;5045625;28;20021;-87
2022/03/11 15:00:24;;;;;;;10.32;4.88;;;;;;;;;;5038494;28;20041;-87
2022/03/11 15:02:50;;;;;;;9.68;4.75;;;;;;;;;;5031302;28;20036;-85
2022/03/11 15:05:15;;;;;;;8.40;4.38;;;;;;;;;;5024064;28;20413;-86
2022/03/11 15:07:40;;;;;;;11.25;4.97;;;;;;;;;;5040485;28;20115;-86
2022/03/11 15:10:06;;;;;;;13.23;5.30;;;;;;;;;;5029340;28;20451;-86
2022/03/11 15:12:31;;;;;;;9.93;4.25;;;;;;;;;;5025637;28;20041;-86
2022/03/11 15:14:56;;;;;;;10.27;4.75;;;;;;;;;;5046405;28;20024;-86
2022/03/11 15:17:22;;;;;;;13.60;5.13;;;;;;;;;;5039822;28;20021;-87